Disclaimer

Please do not use the information listed here in-flight or in-navigation, as they are not provided to us by the airports but are provided by volunteers, so they might be outdated.

Search


Regions


Airport information page

No radio frequency information is available.

Airport informations:
Latitude: 35° 45' 07.58" N
Longitude: 006° 18' 30.92" E
Elevation: 2697 feet - 822 meters
Operating hours: Remarks
Operating agency: UNKNOWN
Timezone: UTC+1 - Dates notified by NOTAM
Fuel: N/A

Runway information:
05/23 - 9843 x 148 feet< - >3000 x 45 meters

Recent METARs:
DABT 130100Z 00000KT CAVOK 01/M00 Q1019
DABT 130200Z 00000KT CAVOK 00/M01 Q1019
DABT 130200Z 00000KT CAVOK 00/M01 Q1019

Airport on the map: